sensor_id;sensor_type;location;lat;lon;timestamp;P1;durP1;ratioP1;P2;durP2;ratioP2
16906;SDS011;8570;52.380;4.654;2023-03-29T00:04:12;4.93;;;2.90;;
16906;SDS011;8570;52.380;4.654;2023-03-29T00:09:12;4.80;;;2.80;;
16906;SDS011;8570;52.380;4.654;2023-03-29T00:14:32;6.60;;;3.60;;
16906;SDS011;8570;52.380;4.654;2023-03-29T00:20:05;5.67;;;3.23;;
16906;SDS011;8570;52.380;4.654;2023-03-29T00:25:12;5.13;;;2.93;;
16906;SDS011;8570;52.380;4.654;2023-03-29T00:30:21;6.43;;;3.03;;
16906;SDS011;8570;52.380;4.654;2023-03-29T00:35:36;5.13;;;3.17;;
16906;SDS011;8570;52.380;4.654;2023-03-29T00:40:44;4.07;;;2.80;;
16906;SDS011;8570;52.380;4.654;2023-03-29T00:46:07;3.23;;;2.70;;
16906;SDS011;8570;52.380;4.654;2023-03-29T00:51:15;7.80;;;2.97;;
16906;SDS011;8570;52.380;4.654;2023-03-29T00:56:24;5.37;;;2.97;;
16906;SDS011;8570;52.380;4.654;2023-03-29T01:07:43;5.13;;;3.63;;
16906;SDS011;8570;52.380;4.654;2023-03-29T01:13:29;5.57;;;3.10;;
16906;SDS011;8570;52.380;4.654;2023-03-29T01:18:48;5.63;;;3.50;;
16906;SDS011;8570;52.380;4.654;2023-03-29T01:29:29;5.13;;;3.30;;
16906;SDS011;8570;52.380;4.654;2023-03-29T01:34:58;5.63;;;3.33;;
16906;SDS011;8570;52.380;4.654;2023-03-29T01:40:18;6.30;;;3.10;;
16906;SDS011;8570;52.380;4.654;2023-03-29T01:45:25;4.67;;;3.47;;
16906;SDS011;8570;52.380;4.654;2023-03-29T01:50:34;5.57;;;3.83;;
16906;SDS011;8570;52.380;4.654;2023-03-29T01:55:54;6.83;;;3.40;;
16906;SDS011;8570;52.380;4.654;2023-03-29T02:06:52;6.13;;;3.30;;
16906;SDS011;8570;52.380;4.654;2023-03-29T02:12:17;7.83;;;3.83;;
16906;SDS011;8570;52.380;4.654;2023-03-29T02:22:59;7.13;;;4.03;;
16906;SDS011;8570;52.380;4.654;2023-03-29T02:34:27;5.90;;;3.90;;
16906;SDS011;8570;52.380;4.654;2023-03-29T02:45:57;7.60;;;4.03;;
16906;SDS011;8570;52.380;4.654;2023-03-29T02:57:21;6.83;;;4.53;;
16906;SDS011;8570;52.380;4.654;2023-03-29T03:02:40;9.73;;;4.97;;
16906;SDS011;8570;52.380;4.654;2023-03-29T03:08:11;6.37;;;4.63;;
16906;SDS011;8570;52.380;4.654;2023-03-29T03:13:23;6.87;;;4.90;;
16906;SDS011;8570;52.380;4.654;2023-03-29T03:18:41;9.63;;;4.53;;
16906;SDS011;8570;52.380;4.654;2023-03-29T03:24:03;7.63;;;4.63;;
16906;SDS011;8570;52.380;4.654;2023-03-29T03:29:06;8.93;;;4.90;;
16906;SDS011;8570;52.380;4.654;2023-03-29T03:34:23;9.80;;;5.20;;
16906;SDS011;8570;52.380;4.654;2023-03-29T03:39:38;10.17;;;4.97;;
16906;SDS011;8570;52.380;4.654;2023-03-29T03:45:25;9.60;;;5.23;;
16906;SDS011;8570;52.380;4.654;2023-03-29T03:50:16;6.47;;;4.70;;
16906;SDS011;8570;52.380;4.654;2023-03-29T03:55:21;11.67;;;5.23;;
16906;SDS011;8570;52.380;4.654;2023-03-29T04:00:32;7.23;;;5.20;;
16906;SDS011;8570;52.380;4.654;2023-03-29T04:05:43;7.77;;;5.23;;
16906;SDS011;8570;52.380;4.654;2023-03-29T04:22:37;11.47;;;6.17;;
16906;SDS011;8570;52.380;4.654;2023-03-29T04:33:57;9.23;;;5.93;;
16906;SDS011;8570;52.380;4.654;2023-03-29T04:39:32;8.90;;;6.17;;
16906;SDS011;8570;52.380;4.654;2023-03-29T04:44:51;7.73;;;5.57;;
16906;SDS011;8570;52.380;4.654;2023-03-29T04:50:02;7.77;;;5.43;;
16906;SDS011;8570;52.380;4.654;2023-03-29T05:06:21;9.83;;;6.10;;
16906;SDS011;8570;52.380;4.654;2023-03-29T05:11:58;7.77;;;6.17;;
16906;SDS011;8570;52.380;4.654;2023-03-29T05:17:26;8.97;;;6.33;;
16906;SDS011;8570;52.380;4.654;2023-03-29T05:22:41;9.07;;;6.00;;
16906;SDS011;8570;52.380;4.654;2023-03-29T05:34:06;8.17;;;5.53;;
16906;SDS011;8570;52.380;4.654;2023-03-29T05:39:18;10.50;;;6.33;;
16906;SDS011;8570;52.380;4.654;2023-03-29T05:49:59;11.17;;;6.50;;
16906;SDS011;8570;52.380;4.654;2023-03-29T05:55:05;11.13;;;6.40;;
16906;SDS011;8570;52.380;4.654;2023-03-29T06:00:44;10.13;;;6.40;;
16906;SDS011;8570;52.380;4.654;2023-03-29T06:12:05;12.63;;;6.70;;
16906;SDS011;8570;52.380;4.654;2023-03-29T06:23:02;11.10;;;7.17;;
16906;SDS011;8570;52.380;4.654;2023-03-29T06:28:09;10.53;;;6.87;;
16906;SDS011;8570;52.380;4.654;2023-03-29T06:33:32;13.53;;;7.87;;
16906;SDS011;8570;52.380;4.654;2023-03-29T06:38:41;10.57;;;6.67;;
16906;SDS011;8570;52.380;4.654;2023-03-29T06:44:02;10.47;;;6.97;;
16906;SDS011;8570;52.380;4.654;2023-03-29T06:54:42;18.00;;;7.27;;
16906;SDS011;8570;52.380;4.654;2023-03-29T06:59:53;15.13;;;7.03;;
16906;SDS011;8570;52.380;4.654;2023-03-29T07:05:20;18.30;;;8.33;;
16906;SDS011;8570;52.380;4.654;2023-03-29T07:10:32;14.53;;;8.37;;
16906;SDS011;8570;52.380;4.654;2023-03-29T07:15:46;15.83;;;8.83;;
16906;SDS011;8570;52.380;4.654;2023-03-29T07:27:08;20.83;;;9.53;;
16906;SDS011;8570;52.380;4.654;2023-03-29T07:32:54;21.73;;;10.27;;
16906;SDS011;8570;52.380;4.654;2023-03-29T07:39:14;24.40;;;11.50;;
16906;SDS011;8570;52.380;4.654;2023-03-29T07:50:29;26.23;;;13.87;;
16906;SDS011;8570;52.380;4.654;2023-03-29T08:13:27;27.43;;;13.83;;
16906;SDS011;8570;52.380;4.654;2023-03-29T08:24:45;27.30;;;13.60;;
16906;SDS011;8570;52.380;4.654;2023-03-29T08:35:36;21.90;;;13.63;;
16906;SDS011;8570;52.380;4.654;2023-03-29T08:42:02;29.63;;;15.20;;
16906;SDS011;8570;52.380;4.654;2023-03-29T08:46:31;21.67;;;14.30;;
16906;SDS011;8570;52.380;4.654;2023-03-29T08:57:50;19.50;;;13.15;;
16906;SDS011;8570;52.380;4.654;2023-03-29T09:03:12;19.65;;;13.35;;
16906;SDS011;8570;52.380;4.654;2023-03-29T09:42:49;23.25;;;14.57;;
16906;SDS011;8570;52.380;4.654;2023-03-29T09:47:55;23.98;;;14.40;;
16906;SDS011;8570;52.380;4.654;2023-03-29T09:52:59;24.92;;;14.43;;
16906;SDS011;8570;52.380;4.654;2023-03-29T09:58:06;24.77;;;13.85;;
16906;SDS011;8570;52.380;4.654;2023-03-29T10:03:16;23.30;;;14.45;;
16906;SDS011;8570;52.380;4.654;2023-03-29T10:08:35;21.77;;;14.70;;
16906;SDS011;8570;52.380;4.654;2023-03-29T10:13:42;21.33;;;13.38;;
16906;SDS011;8570;52.380;4.654;2023-03-29T10:18:48;19.20;;;12.93;;
16906;SDS011;8570;52.380;4.654;2023-03-29T10:23:57;17.65;;;12.48;;
16906;SDS011;8570;52.380;4.654;2023-03-29T10:29:00;17.73;;;12.32;;
16906;SDS011;8570;52.380;4.654;2023-03-29T10:34:04;19.70;;;14.50;;
16906;SDS011;8570;52.380;4.654;2023-03-29T10:39:09;20.60;;;14.30;;
16906;SDS011;8570;52.380;4.654;2023-03-29T10:44:25;21.17;;;14.50;;
16906;SDS011;8570;52.380;4.654;2023-03-29T10:49:30;21.38;;;14.88;;
16906;SDS011;8570;52.380;4.654;2023-03-29T10:54:42;23.15;;;14.05;;
16906;SDS011;8570;52.380;4.654;2023-03-29T10:59:46;29.45;;;16.10;;
16906;SDS011;8570;52.380;4.654;2023-03-29T11:04:53;21.85;;;14.93;;
16906;SDS011;8570;52.380;4.654;2023-03-29T11:10:21;24.60;;;15.05;;
16906;SDS011;8570;52.380;4.654;2023-03-29T11:15:40;24.52;;;14.32;;
16906;SDS011;8570;52.380;4.654;2023-03-29T11:20:52;20.35;;;12.50;;
16906;SDS011;8570;52.380;4.654;2023-03-29T11:26:07;15.35;;;11.32;;
16906;SDS011;8570;52.380;4.654;2023-03-29T11:31:17;16.45;;;11.20;;
16906;SDS011;8570;52.380;4.654;2023-03-29T11:36:36;17.05;;;12.05;;
16906;SDS011;8570;52.380;4.654;2023-03-29T11:41:45;14.52;;;10.98;;
16906;SDS011;8570;52.380;4.654;2023-03-29T11:46:53;17.42;;;11.60;;
16906;SDS011;8570;52.380;4.654;2023-03-29T11:52:00;16.80;;;11.23;;
16906;SDS011;8570;52.380;4.654;2023-03-29T11:57:10;17.27;;;11.20;;
16906;SDS011;8570;52.380;4.654;2023-03-29T12:02:20;17.58;;;11.75;;
16906;SDS011;8570;52.380;4.654;2023-03-29T12:07:28;15.20;;;11.68;;
16906;SDS011;8570;52.380;4.654;2023-03-29T12:12:38;13.95;;;10.15;;
16906;SDS011;8570;52.380;4.654;2023-03-29T12:17:48;17.83;;;10.40;;
16906;SDS011;8570;52.380;4.654;2023-03-29T12:22:59;16.60;;;10.68;;
16906;SDS011;8570;52.380;4.654;2023-03-29T12:28:08;11.70;;;9.60;;
16906;SDS011;8570;52.380;4.654;2023-03-29T12:39:10;14.38;;;12.73;;
16906;SDS011;8570;52.380;4.654;2023-03-29T12:44:15;15.93;;;13.25;;
16906;SDS011;8570;52.380;4.654;2023-03-29T12:49:24;23.90;;;16.23;;
16906;SDS011;8570;52.380;4.654;2023-03-29T12:54:30;19.40;;;15.32;;
16906;SDS011;8570;52.380;4.654;2023-03-29T12:59:36;22.35;;;17.85;;
16906;SDS011;8570;52.380;4.654;2023-03-29T13:04:47;20.75;;;17.00;;
16906;SDS011;8570;52.380;4.654;2023-03-29T13:09:51;20.13;;;15.48;;
16906;SDS011;8570;52.380;4.654;2023-03-29T13:14:56;15.07;;;13.07;;
16906;SDS011;8570;52.380;4.654;2023-03-29T13:20:17;18.77;;;13.05;;
16906;SDS011;8570;52.380;4.654;2023-03-29T13:25:38;15.13;;;12.80;;
16906;SDS011;8570;52.380;4.654;2023-03-29T13:30:50;18.88;;;11.85;;
16906;SDS011;8570;52.380;4.654;2023-03-29T13:35:59;13.02;;;11.60;;
16906;SDS011;8570;52.380;4.654;2023-03-29T13:41:10;19.70;;;11.90;;
16906;SDS011;8570;52.380;4.654;2023-03-29T13:46:38;15.52;;;11.80;;
16906;SDS011;8570;52.380;4.654;2023-03-29T13:51:42;18.65;;;11.65;;
16906;SDS011;8570;52.380;4.654;2023-03-29T13:57:01;13.20;;;10.70;;
16906;SDS011;8570;52.380;4.654;2023-03-29T14:02:12;12.98;;;11.55;;
16906;SDS011;8570;52.380;4.654;2023-03-29T14:07:21;16.33;;;11.52;;
16906;SDS011;8570;52.380;4.654;2023-03-29T14:12:26;16.58;;;10.30;;
16906;SDS011;8570;52.380;4.654;2023-03-29T14:17:34;12.50;;;9.43;;
16906;SDS011;8570;52.380;4.654;2023-03-29T14:22:36;13.75;;;9.75;;
16906;SDS011;8570;52.380;4.654;2023-03-29T14:27:39;14.27;;;10.70;;
16906;SDS011;8570;52.380;4.654;2023-03-29T14:32:43;13.15;;;9.75;;
16906;SDS011;8570;52.380;4.654;2023-03-29T14:37:45;15.23;;;10.20;;
16906;SDS011;8570;52.380;4.654;2023-03-29T14:42:48;17.73;;;11.48;;
16906;SDS011;8570;52.380;4.654;2023-03-29T14:47:51;15.63;;;10.82;;
16906;SDS011;8570;52.380;4.654;2023-03-29T14:52:54;19.55;;;11.48;;
16906;SDS011;8570;52.380;4.654;2023-03-29T14:57:58;13.88;;;10.70;;
16906;SDS011;8570;52.380;4.654;2023-03-29T15:03:01;12.88;;;9.48;;
16906;SDS011;8570;52.380;4.654;2023-03-29T15:08:04;16.63;;;10.23;;
16906;SDS011;8570;52.380;4.654;2023-03-29T15:13:10;17.45;;;9.48;;
16906;SDS011;8570;52.380;4.654;2023-03-29T15:18:20;18.60;;;10.55;;
16906;SDS011;8570;52.380;4.654;2023-03-29T15:23:33;13.38;;;10.07;;
16906;SDS011;8570;52.380;4.654;2023-03-29T15:28:44;12.18;;;9.90;;
16906;SDS011;8570;52.380;4.654;2023-03-29T15:33:49;12.93;;;10.63;;
16906;SDS011;8570;52.380;4.654;2023-03-29T15:39:02;16.75;;;11.05;;
16906;SDS011;8570;52.380;4.654;2023-03-29T15:44:04;19.98;;;12.50;;
16906;SDS011;8570;52.380;4.654;2023-03-29T15:49:10;18.67;;;12.02;;
16906;SDS011;8570;52.380;4.654;2023-03-29T15:54:12;16.23;;;11.13;;
16906;SDS011;8570;52.380;4.654;2023-03-29T15:59:14;16.42;;;11.00;;
16906;SDS011;8570;52.380;4.654;2023-03-29T16:04:19;15.25;;;11.20;;
16906;SDS011;8570;52.380;4.654;2023-03-29T16:09:22;16.42;;;10.55;;
16906;SDS011;8570;52.380;4.654;2023-03-29T16:14:25;15.25;;;10.18;;
16906;SDS011;8570;52.380;4.654;2023-03-29T16:19:30;15.73;;;10.52;;
16906;SDS011;8570;52.380;4.654;2023-03-29T16:24:34;16.15;;;10.15;;
16906;SDS011;8570;52.380;4.654;2023-03-29T16:29:36;13.15;;;9.55;;
16906;SDS011;8570;52.380;4.654;2023-03-29T16:34:40;18.33;;;9.55;;
16906;SDS011;8570;52.380;4.654;2023-03-29T16:39:46;12.02;;;9.35;;
16906;SDS011;8570;52.380;4.654;2023-03-29T16:44:53;15.52;;;10.85;;
16906;SDS011;8570;52.380;4.654;2023-03-29T16:49:57;15.48;;;10.00;;
16906;SDS011;8570;52.380;4.654;2023-03-29T16:54:58;13.82;;;10.63;;
16906;SDS011;8570;52.380;4.654;2023-03-29T17:00:13;15.38;;;10.50;;
16906;SDS011;8570;52.380;4.654;2023-03-29T17:05:20;12.13;;;10.13;;
16906;SDS011;8570;52.380;4.654;2023-03-29T17:10:24;13.55;;;10.40;;
16906;SDS011;8570;52.380;4.654;2023-03-29T17:15:26;14.65;;;11.38;;
16906;SDS011;8570;52.380;4.654;2023-03-29T17:20:29;18.85;;;10.27;;
16906;SDS011;8570;52.380;4.654;2023-03-29T17:25:31;12.57;;;8.73;;
16906;SDS011;8570;52.380;4.654;2023-03-29T17:30:33;12.07;;;9.60;;
16906;SDS011;8570;52.380;4.654;2023-03-29T17:35:39;14.27;;;8.40;;
16906;SDS011;8570;52.380;4.654;2023-03-29T17:40:41;12.57;;;8.00;;
16906;SDS011;8570;52.380;4.654;2023-03-29T17:45:43;12.15;;;7.65;;
16906;SDS011;8570;52.380;4.654;2023-03-29T17:50:53;8.45;;;6.55;;
16906;SDS011;8570;52.380;4.654;2023-03-29T17:55:55;8.52;;;6.55;;
16906;SDS011;8570;52.380;4.654;2023-03-29T18:00:57;9.45;;;7.28;;
16906;SDS011;8570;52.380;4.654;2023-03-29T18:06:01;7.60;;;6.22;;
16906;SDS011;8570;52.380;4.654;2023-03-29T18:11:03;8.15;;;6.60;;
16906;SDS011;8570;52.380;4.654;2023-03-29T18:16:07;8.52;;;7.25;;
16906;SDS011;8570;52.380;4.654;2023-03-29T18:21:11;9.05;;;8.15;;
16906;SDS011;8570;52.380;4.654;2023-03-29T18:26:14;11.27;;;7.82;;
16906;SDS011;8570;52.380;4.654;2023-03-29T18:31:16;11.32;;;6.97;;
16906;SDS011;8570;52.380;4.654;2023-03-29T18:36:20;8.10;;;7.30;;
16906;SDS011;8570;52.380;4.654;2023-03-29T18:41:24;13.40;;;8.02;;
16906;SDS011;8570;52.380;4.654;2023-03-29T18:46:26;14.18;;;6.50;;
16906;SDS011;8570;52.380;4.654;2023-03-29T18:51:31;9.23;;;6.88;;
16906;SDS011;8570;52.380;4.654;2023-03-29T18:56:33;7.38;;;6.68;;
16906;SDS011;8570;52.380;4.654;2023-03-29T19:01:35;11.68;;;8.32;;
16906;SDS011;8570;52.380;4.654;2023-03-29T19:06:39;11.20;;;8.25;;
16906;SDS011;8570;52.380;4.654;2023-03-29T19:11:41;10.43;;;7.20;;
16906;SDS011;8570;52.380;4.654;2023-03-29T19:16:48;9.60;;;7.70;;
16906;SDS011;8570;52.380;4.654;2023-03-29T19:21:52;20.73;;;13.05;;
16906;SDS011;8570;52.380;4.654;2023-03-29T19:26:55;11.18;;;7.03;;
16906;SDS011;8570;52.380;4.654;2023-03-29T19:31:57;9.77;;;6.70;;
16906;SDS011;8570;52.380;4.654;2023-03-29T19:37:00;8.68;;;6.40;;
16906;SDS011;8570;52.380;4.654;2023-03-29T19:42:03;8.32;;;6.35;;
16906;SDS011;8570;52.380;4.654;2023-03-29T19:47:05;7.70;;;6.07;;
16906;SDS011;8570;52.380;4.654;2023-03-29T19:52:08;14.68;;;9.38;;
16906;SDS011;8570;52.380;4.654;2023-03-29T19:57:10;7.80;;;6.68;;
16906;SDS011;8570;52.380;4.654;2023-03-29T20:02:12;8.45;;;6.95;;
16906;SDS011;8570;52.380;4.654;2023-03-29T20:07:15;10.23;;;7.78;;
16906;SDS011;8570;52.380;4.654;2023-03-29T20:12:17;8.50;;;7.28;;
16906;SDS011;8570;52.380;4.654;2023-03-29T20:17:19;8.13;;;7.03;;
16906;SDS011;8570;52.380;4.654;2023-03-29T20:22:26;9.80;;;7.95;;
16906;SDS011;8570;52.380;4.654;2023-03-29T20:27:30;10.10;;;8.07;;
16906;SDS011;8570;52.380;4.654;2023-03-29T20:32:33;11.40;;;8.30;;
16906;SDS011;8570;52.380;4.654;2023-03-29T20:37:36;11.13;;;8.48;;
16906;SDS011;8570;52.380;4.654;2023-03-29T20:42:38;12.27;;;7.88;;
16906;SDS011;8570;52.380;4.654;2023-03-29T20:47:40;13.48;;;8.38;;
16906;SDS011;8570;52.380;4.654;2023-03-29T20:52:50;13.45;;;8.00;;
16906;SDS011;8570;52.380;4.654;2023-03-29T20:57:54;9.50;;;8.10;;
16906;SDS011;8570;52.380;4.654;2023-03-29T21:02:57;11.57;;;8.65;;
16906;SDS011;8570;52.380;4.654;2023-03-29T21:08:00;10.48;;;9.10;;
16906;SDS011;8570;52.380;4.654;2023-03-29T21:13:03;11.93;;;9.07;;
16906;SDS011;8570;52.380;4.654;2023-03-29T21:18:05;10.40;;;8.80;;
16906;SDS011;8570;52.380;4.654;2023-03-29T21:23:09;12.77;;;8.63;;
16906;SDS011;8570;52.380;4.654;2023-03-29T21:28:11;12.52;;;8.70;;
16906;SDS011;8570;52.380;4.654;2023-03-29T21:33:13;12.70;;;9.77;;
16906;SDS011;8570;52.380;4.654;2023-03-29T21:38:16;10.57;;;8.32;;
16906;SDS011;8570;52.380;4.654;2023-03-29T21:43:18;10.77;;;8.70;;
16906;SDS011;8570;52.380;4.654;2023-03-29T21:48:20;12.45;;;8.77;;
16906;SDS011;8570;52.380;4.654;2023-03-29T21:53:25;12.02;;;8.98;;
16906;SDS011;8570;52.380;4.654;2023-03-29T21:58:26;15.90;;;9.15;;
16906;SDS011;8570;52.380;4.654;2023-03-29T22:03:28;10.60;;;8.55;;
16906;SDS011;8570;52.380;4.654;2023-03-29T22:08:32;15.05;;;8.55;;
16906;SDS011;8570;52.380;4.654;2023-03-29T22:13:49;17.08;;;9.48;;
16906;SDS011;8570;52.380;4.654;2023-03-29T22:18:52;13.38;;;8.82;;
16906;SDS011;8570;52.380;4.654;2023-03-29T22:23:56;12.88;;;8.20;;
16906;SDS011;8570;52.380;4.654;2023-03-29T22:28:59;10.73;;;7.00;;
16906;SDS011;8570;52.380;4.654;2023-03-29T22:34:01;9.73;;;7.35;;
16906;SDS011;8570;52.380;4.654;2023-03-29T22:39:04;15.13;;;7.90;;
16906;SDS011;8570;52.380;4.654;2023-03-29T22:44:07;13.20;;;7.57;;
16906;SDS011;8570;52.380;4.654;2023-03-29T22:49:09;13.32;;;6.90;;
16906;SDS011;8570;52.380;4.654;2023-03-29T22:54:12;10.02;;;6.70;;
16906;SDS011;8570;52.380;4.654;2023-03-29T22:59:14;10.75;;;6.55;;
16906;SDS011;8570;52.380;4.654;2023-03-29T23:04:16;12.60;;;6.00;;
16906;SDS011;8570;52.380;4.654;2023-03-29T23:09:20;9.65;;;5.45;;
16906;SDS011;8570;52.380;4.654;2023-03-29T23:14:21;11.35;;;5.70;;
16906;SDS011;8570;52.380;4.654;2023-03-29T23:19:26;10.40;;;5.63;;
16906;SDS011;8570;52.380;4.654;2023-03-29T23:24:30;11.00;;;5.25;;
16906;SDS011;8570;52.380;4.654;2023-03-29T23:29:32;9.75;;;4.75;;
16906;SDS011;8570;52.380;4.654;2023-03-29T23:34:36;7.15;;;4.45;;
16906;SDS011;8570;52.380;4.654;2023-03-29T23:39:40;8.68;;;3.80;;
16906;SDS011;8570;52.380;4.654;2023-03-29T23:44:42;10.95;;;3.30;;
16906;SDS011;8570;52.380;4.654;2023-03-29T23:49:44;5.68;;;2.97;;
16906;SDS011;8570;52.380;4.654;2023-03-29T23:54:48;5.32;;;2.83;;
16906;SDS011;8570;52.380;4.654;2023-03-29T23:59:50;6.40;;;2.60;;
